createdAt,value
2023-05-14T00:01:24.818Z,13.03
2023-05-14T00:03:51.494Z,13.02
2023-05-14T00:06:18.040Z,12.98
2023-05-14T00:08:44.489Z,12.94
2023-05-14T00:11:10.884Z,12.87
2023-05-14T00:13:37.629Z,12.83
2023-05-14T00:16:04.247Z,12.79
2023-05-14T00:18:30.760Z,12.76
2023-05-14T00:20:57.281Z,12.75
2023-05-14T00:23:24.607Z,12.69
2023-05-14T00:25:51.112Z,12.69
2023-05-14T00:28:17.674Z,12.66
2023-05-14T00:30:44.792Z,12.66
2023-05-14T00:33:11.258Z,12.64
2023-05-14T00:35:37.712Z,12.62
2023-05-14T00:38:04.129Z,12.59
2023-05-14T00:40:30.655Z,12.57
2023-05-14T00:42:57.373Z,12.52
2023-05-14T00:45:23.854Z,12.51
2023-05-14T00:47:51.175Z,12.52
2023-05-14T00:50:18.367Z,12.51
2023-05-14T00:52:44.982Z,12.46
2023-05-14T00:55:16.375Z,12.40
2023-05-14T00:57:43.108Z,12.37
2023-05-14T01:00:10.067Z,12.37
2023-05-14T01:02:36.554Z,12.33
2023-05-14T01:05:03.669Z,12.27
2023-05-14T01:07:45.802Z,12.22
2023-05-14T01:10:19.583Z,12.16
2023-05-14T01:13:09.443Z,12.11
2023-05-14T01:15:37.676Z,12.09
2023-05-14T01:18:08.070Z,12.11
2023-05-14T01:20:34.819Z,12.06
2023-05-14T01:23:01.325Z,12.04
2023-05-14T01:25:29.766Z,11.98
2023-05-14T01:28:09.339Z,11.98
2023-05-14T01:30:37.881Z,11.98
2023-05-14T01:33:11.206Z,11.97
2023-05-14T01:35:38.165Z,11.94
2023-05-14T01:38:07.349Z,11.89
2023-05-14T01:40:36.269Z,11.87
2023-05-14T01:43:04.083Z,11.85
2023-05-14T01:45:31.369Z,11.83
2023-05-14T01:47:58.056Z,11.79
2023-05-14T01:50:24.631Z,11.77
2023-05-14T01:52:53.398Z,11.74
2023-05-14T01:55:19.902Z,11.70
2023-05-14T01:57:46.390Z,11.68
2023-05-14T02:00:13.079Z,11.65
2023-05-14T02:02:39.539Z,11.65
2023-05-14T02:05:07.121Z,11.61
2023-05-14T02:07:33.808Z,11.58
2023-05-14T02:10:00.323Z,11.57
2023-05-14T02:12:26.690Z,11.57
2023-05-14T02:14:53.103Z,11.55
2023-05-14T02:17:20.457Z,11.55
2023-05-14T02:19:47.063Z,11.54
2023-05-14T02:22:13.500Z,11.53
2023-05-14T02:24:39.872Z,11.51
2023-05-14T02:27:06.435Z,11.47
2023-05-14T02:29:32.817Z,11.44
2023-05-14T02:31:59.211Z,11.40
2023-05-14T02:34:25.983Z,11.40
2023-05-14T02:36:52.441Z,11.39
2023-05-14T02:39:18.817Z,11.38
2023-05-14T02:41:45.262Z,11.34
2023-05-14T02:44:11.621Z,11.30
2023-05-14T02:46:38.113Z,11.29
2023-05-14T02:49:04.702Z,11.27
2023-05-14T02:51:31.069Z,11.27
2023-05-14T02:53:57.575Z,11.23
2023-05-14T02:56:23.961Z,11.23
2023-05-14T02:58:50.375Z,11.19
2023-05-14T03:01:18.749Z,11.17
2023-05-14T03:03:45.654Z,11.16
2023-05-14T03:06:12.394Z,11.15
2023-05-14T03:08:38.749Z,11.12
2023-05-14T03:11:05.284Z,11.11
2023-05-14T03:13:31.714Z,11.08
2023-05-14T03:15:58.134Z,11.09
2023-05-14T03:18:24.635Z,11.05
2023-05-14T03:20:51.120Z,11.02
2023-05-14T03:23:17.632Z,11.02
2023-05-14T03:25:43.971Z,11.00
2023-05-14T03:28:10.305Z,10.98
2023-05-14T03:30:36.769Z,10.96
2023-05-14T03:33:03.642Z,10.94
2023-05-14T03:35:30.061Z,10.92
2023-05-14T03:37:59.126Z,10.93
2023-05-14T03:40:26.102Z,10.92
2023-05-14T03:42:52.734Z,10.89
2023-05-14T03:45:19.303Z,10.92
2023-05-14T03:47:45.718Z,10.93
2023-05-14T03:50:12.131Z,10.94
2023-05-14T03:52:38.527Z,10.97
2023-05-14T03:55:05.348Z,10.94
2023-05-14T03:57:31.816Z,10.93
2023-05-14T03:59:58.187Z,10.95
2023-05-14T04:02:25.358Z,10.95
2023-05-14T04:04:51.904Z,10.95
2023-05-14T04:07:18.486Z,10.97
2023-05-14T04:09:44.877Z,10.95
2023-05-14T04:12:11.686Z,10.95
2023-05-14T04:14:38.096Z,10.94
2023-05-14T04:17:04.622Z,10.95
2023-05-14T04:19:31.307Z,10.95
2023-05-14T04:21:57.654Z,10.94
2023-05-14T04:24:23.993Z,10.94
2023-05-14T04:26:50.450Z,10.95
2023-05-14T04:29:16.853Z,10.97
2023-05-14T04:31:43.390Z,11.00
2023-05-14T04:34:09.953Z,11.00
2023-05-14T04:36:36.373Z,11.00
2023-05-14T04:39:02.843Z,11.04
2023-05-14T04:41:29.228Z,11.10
2023-05-14T04:43:56.456Z,11.16
2023-05-14T04:46:22.992Z,11.16
2023-05-14T04:48:50.405Z,11.21
2023-05-14T04:51:16.861Z,11.30
2023-05-14T04:53:43.241Z,11.37
2023-05-14T04:56:10.020Z,11.49
2023-05-14T04:58:36.496Z,11.56
2023-05-14T05:01:05.048Z,11.59
2023-05-14T05:03:31.984Z,11.62
2023-05-14T05:05:58.505Z,11.69
2023-05-14T05:08:24.876Z,11.72
2023-05-14T05:10:51.252Z,11.78
2023-05-14T05:13:17.712Z,11.88
2023-05-14T05:15:44.164Z,12.52
2023-05-14T05:18:10.694Z,13.24
2023-05-14T05:20:37.049Z,13.25
2023-05-14T05:23:03.485Z,13.26
2023-05-14T05:25:29.897Z,13.41
2023-05-14T05:27:56.798Z,13.45
2023-05-14T05:30:23.550Z,13.76
2023-05-14T05:32:50.268Z,14.83
2023-05-14T05:35:16.692Z,15.57
2023-05-14T05:37:45.238Z,15.51
2023-05-14T05:40:14.020Z,14.88
2023-05-14T05:42:41.212Z,14.17
2023-05-14T05:45:07.944Z,13.70
2023-05-14T05:47:34.623Z,13.39
2023-05-14T05:50:00.997Z,13.18
2023-05-14T05:52:27.504Z,13.10
2023-05-14T05:54:53.924Z,13.03
2023-05-14T05:57:22.903Z,13.02
2023-05-14T05:59:50.520Z,12.98
2023-05-14T06:02:17.062Z,12.96
2023-05-14T06:04:43.534Z,12.92
2023-05-14T06:07:09.909Z,12.95
2023-05-14T06:09:36.291Z,12.96
2023-05-14T06:12:02.722Z,13.03
2023-05-14T06:14:29.106Z,13.87
2023-05-14T06:16:55.755Z,14.05
2023-05-14T06:19:23.147Z,13.78
2023-05-14T06:21:49.633Z,13.75
2023-05-14T06:24:16.531Z,13.78
2023-05-14T06:26:42.972Z,13.79
2023-05-14T06:29:09.421Z,13.86
2023-05-14T06:31:35.930Z,13.92
2023-05-14T06:34:02.405Z,14.02
2023-05-14T06:36:28.770Z,14.16
2023-05-14T06:38:55.249Z,14.52
2023-05-14T06:41:21.632Z,14.81
2023-05-14T06:43:48.021Z,15.02
2023-05-14T06:46:14.402Z,15.01
2023-05-14T06:48:40.923Z,14.87
2023-05-14T06:51:07.388Z,15.13
2023-05-14T06:53:33.782Z,15.52
2023-05-14T06:56:00.292Z,15.40
2023-05-14T06:58:26.678Z,15.54
2023-05-14T07:00:53.017Z,15.67
2023-05-14T07:03:19.442Z,15.66
2023-05-14T07:05:46.790Z,15.68
2023-05-14T07:08:13.404Z,15.88
2023-05-14T07:10:39.859Z,16.21
2023-05-14T07:13:06.621Z,16.44
2023-05-14T07:15:33.057Z,16.60
2023-05-14T07:17:59.496Z,16.55
2023-05-14T07:20:26.229Z,16.36
2023-05-14T07:22:53.043Z,16.17
2023-05-14T07:25:19.387Z,16.42
2023-05-14T07:27:46.051Z,16.64
2023-05-14T07:30:12.740Z,16.66
2023-05-14T07:32:39.491Z,16.86
2023-05-14T07:35:06.878Z,17.09
2023-05-14T07:37:33.372Z,17.19
2023-05-14T07:39:59.857Z,17.20
2023-05-14T07:42:35.898Z,17.05
2023-05-14T07:45:03.245Z,17.13
2023-05-14T07:47:30.066Z,17.38
2023-05-14T07:49:57.313Z,17.64
2023-05-14T07:52:24.407Z,17.73
2023-05-14T07:54:51.773Z,17.90
2023-05-14T07:57:19.050Z,18.02
2023-05-14T07:59:45.844Z,18.19
2023-05-14T08:02:12.983Z,18.22
2023-05-14T08:04:39.887Z,18.33
2023-05-14T08:07:08.251Z,18.46
2023-05-14T08:09:34.860Z,18.37
2023-05-14T08:12:01.408Z,18.20
2023-05-14T08:14:28.445Z,18.22
2023-05-14T08:16:54.937Z,18.15
2023-05-14T08:19:21.476Z,18.25
2023-05-14T08:21:47.854Z,18.49
2023-05-14T08:24:15.036Z,18.67
2023-05-14T08:26:41.917Z,18.86
2023-05-14T08:29:10.491Z,18.94
2023-05-14T08:31:37.377Z,19.03
2023-05-14T08:34:03.819Z,19.28
2023-05-14T08:36:30.271Z,19.57
2023-05-14T08:38:56.615Z,19.48
2023-05-14T08:41:23.391Z,19.35
2023-05-14T08:44:07.114Z,19.40
2023-05-14T08:46:34.027Z,19.52
2023-05-14T08:49:34.720Z,19.73
2023-05-14T08:52:01.640Z,19.71
2023-05-14T08:54:28.862Z,19.62
2023-05-14T08:56:55.609Z,19.78
2023-05-14T08:59:22.032Z,19.96
2023-05-14T09:01:50.901Z,19.96
2023-05-14T09:04:22.950Z,19.96
2023-05-14T09:06:50.980Z,20.08
2023-05-14T09:09:18.270Z,20.13
2023-05-14T09:11:48.938Z,20.37
2023-05-14T09:14:15.905Z,20.38
2023-05-14T09:16:47.999Z,20.19
2023-05-14T09:19:15.851Z,20.17
2023-05-14T09:21:45.266Z,20.36
2023-05-14T09:24:22.848Z,20.70
2023-05-14T09:26:57.168Z,20.94
2023-05-14T09:29:28.823Z,20.88
2023-05-14T09:31:57.369Z,21.06
2023-05-14T09:34:42.565Z,21.30
2023-05-14T09:37:09.819Z,21.22
2023-05-14T09:39:37.645Z,21.15
2023-05-14T09:42:04.616Z,21.39
2023-05-14T09:44:31.874Z,21.26
2023-05-14T09:46:58.323Z,21.48
2023-05-14T09:49:24.739Z,21.79
2023-05-14T09:51:51.819Z,22.11
2023-05-14T09:54:18.487Z,22.15
2023-05-14T09:56:45.181Z,22.37
2023-05-14T09:59:11.825Z,22.51
2023-05-14T10:01:38.722Z,22.27
2023-05-14T10:04:07.507Z,22.35
2023-05-14T10:06:38.107Z,22.35
2023-05-14T10:09:09.858Z,22.41
2023-05-14T10:11:39.034Z,22.55
2023-05-14T10:14:07.929Z,22.45
2023-05-14T10:16:39.340Z,22.64
2023-05-14T10:19:10.986Z,22.69
2023-05-14T10:21:40.405Z,22.79
2023-05-14T10:24:08.363Z,22.78
2023-05-14T10:26:41.005Z,22.90
2023-05-14T10:29:09.865Z,23.06
2023-05-14T10:31:50.642Z,23.35
2023-05-14T10:34:40.667Z,23.50
2023-05-14T10:37:10.569Z,23.75
2023-05-14T10:39:56.348Z,23.92
2023-05-14T10:42:25.910Z,23.89
2023-05-14T10:45:02.722Z,24.03
2023-05-14T10:47:29.628Z,24.28
2023-05-14T10:49:58.715Z,24.24
2023-05-14T10:52:26.240Z,24.28
2023-05-14T10:55:03.089Z,24.04
2023-05-14T10:57:32.169Z,24.02
2023-05-14T11:00:01.329Z,24.18
2023-05-14T11:02:28.956Z,24.03
2023-05-14T11:05:08.211Z,24.31
2023-05-14T11:07:35.931Z,24.61
2023-05-14T11:10:05.508Z,24.71
2023-05-14T11:12:33.690Z,24.56
2023-05-14T11:15:02.213Z,24.92
2023-05-14T11:17:31.139Z,25.16
2023-05-14T11:19:58.874Z,25.32
2023-05-14T11:22:25.543Z,25.24
2023-05-14T11:24:52.663Z,25.31
2023-05-14T11:27:20.537Z,25.66
2023-05-14T11:29:48.330Z,25.97
2023-05-14T11:32:15.978Z,25.99
2023-05-14T11:34:47.069Z,25.80
2023-05-14T11:37:15.364Z,25.74
2023-05-14T11:39:49.817Z,25.89
2023-05-14T11:42:18.717Z,25.66
2023-05-14T11:44:49.046Z,25.73
2023-05-14T11:47:16.866Z,25.90
2023-05-14T11:49:43.292Z,25.81
2023-05-14T11:52:12.278Z,25.81
2023-05-14T11:54:38.709Z,25.79
2023-05-14T11:57:14.214Z,25.32
2023-05-14T11:59:41.064Z,25.51
2023-05-14T12:02:17.562Z,26.03
2023-05-14T12:04:45.086Z,26.30
2023-05-14T12:07:14.636Z,26.27
2023-05-14T12:09:49.004Z,26.40
2023-05-14T12:12:21.204Z,26.50
2023-05-14T12:14:48.550Z,26.45
2023-05-14T12:17:17.124Z,26.58
2023-05-14T12:19:44.960Z,26.33
2023-05-14T12:22:13.808Z,26.43
2023-05-14T12:24:40.388Z,26.74
2023-05-14T12:27:09.336Z,26.78
2023-05-14T12:29:38.041Z,26.52
2023-05-14T12:32:09.225Z,26.40
2023-05-14T12:34:38.744Z,26.53
2023-05-14T12:37:06.589Z,26.42
2023-05-14T12:39:34.253Z,26.46
2023-05-14T12:42:01.252Z,26.67
2023-05-14T12:44:27.979Z,26.88
2023-05-14T12:46:54.973Z,26.80
2023-05-14T12:49:21.389Z,26.86
2023-05-14T12:51:47.726Z,27.22
2023-05-14T12:54:15.739Z,27.06
2023-05-14T12:56:42.574Z,26.98
2023-05-14T12:59:09.553Z,27.00
2023-05-14T13:01:37.594Z,27.04
2023-05-14T13:04:05.461Z,27.02
2023-05-14T13:06:32.438Z,26.93
2023-05-14T13:09:01.614Z,26.98
2023-05-14T13:11:30.333Z,26.70
2023-05-14T13:13:56.791Z,26.56
2023-05-14T13:16:23.319Z,26.68
2023-05-14T13:18:49.803Z,27.03
2023-05-14T13:21:16.166Z,27.31
2023-05-14T13:23:42.544Z,27.10
2023-05-14T13:26:09.665Z,26.57
2023-05-14T13:28:36.051Z,26.70
2023-05-14T13:31:05.850Z,26.75
2023-05-14T13:33:33.471Z,26.74
2023-05-14T13:36:00.282Z,26.58
2023-05-14T13:38:26.820Z,26.72
2023-05-14T13:40:54.289Z,26.84
2023-05-14T13:43:20.782Z,26.79
2023-05-14T13:45:47.954Z,26.75
2023-05-14T13:48:14.396Z,26.73
2023-05-14T13:50:40.842Z,26.68
2023-05-14T13:53:07.176Z,26.50
2023-05-14T13:55:33.545Z,26.29
2023-05-14T13:58:01.677Z,26.26
2023-05-14T14:00:28.122Z,26.56
2023-05-14T14:02:54.578Z,26.67
2023-05-14T14:05:21.119Z,26.64
2023-05-14T14:07:47.669Z,26.47
2023-05-14T14:10:16.041Z,26.24
2023-05-14T14:12:42.561Z,26.02
2023-05-14T14:15:09.499Z,25.94
2023-05-14T14:17:36.765Z,25.81
2023-05-14T14:20:05.932Z,25.67
2023-05-14T14:22:32.858Z,25.49
2023-05-14T14:24:59.298Z,25.68
2023-05-14T14:27:25.958Z,25.66
2023-05-14T14:29:52.400Z,25.74
2023-05-14T14:32:18.814Z,25.71
2023-05-14T14:34:45.184Z,25.45
2023-05-14T14:37:11.647Z,25.49
2023-05-14T14:39:38.035Z,25.93
2023-05-14T14:42:04.798Z,26.04
2023-05-14T14:44:31.206Z,25.94
2023-05-14T14:46:57.541Z,25.73
2023-05-14T14:49:23.947Z,25.88
2023-05-14T14:51:50.449Z,25.76
2023-05-14T14:54:16.884Z,25.90
2023-05-14T14:56:44.176Z,25.86
2023-05-14T14:59:10.615Z,25.81
2023-05-14T15:01:37.236Z,25.67
2023-05-14T15:04:03.979Z,25.69
2023-05-14T15:06:30.465Z,25.83
2023-05-14T15:08:56.918Z,25.89
2023-05-14T15:11:23.338Z,25.60
2023-05-14T15:13:49.851Z,25.45
2023-05-14T15:16:16.307Z,25.48
2023-05-14T15:18:42.766Z,25.23
2023-05-14T15:21:09.257Z,25.24
2023-05-14T15:23:35.673Z,25.44
2023-05-14T15:26:02.119Z,25.38
2023-05-14T15:28:28.590Z,25.29
2023-05-14T15:30:54.995Z,25.32
2023-05-14T15:33:21.507Z,25.30
2023-05-14T15:35:48.026Z,25.30
2023-05-14T15:38:14.449Z,25.40
2023-05-14T15:40:40.992Z,25.25
2023-05-14T15:43:07.522Z,25.15
2023-05-14T15:45:33.989Z,25.01
2023-05-14T15:48:00.917Z,24.89
2023-05-14T15:50:27.452Z,24.64
2023-05-14T15:52:54.013Z,24.67
2023-05-14T15:55:20.663Z,24.59
2023-05-14T15:57:47.061Z,24.33
2023-05-14T16:00:14.369Z,24.24
2023-05-14T16:02:41.285Z,24.08
2023-05-14T16:05:08.522Z,23.97
2023-05-14T16:07:35.497Z,23.76
2023-05-14T16:10:02.052Z,23.86
2023-05-14T16:12:28.671Z,23.88
2023-05-14T16:14:57.192Z,23.85
2023-05-14T16:17:23.872Z,23.76
2023-05-14T16:19:50.480Z,23.57
2023-05-14T16:22:16.867Z,23.52
2023-05-14T16:24:44.747Z,23.51
2023-05-14T16:27:11.602Z,23.45
2023-05-14T16:29:38.053Z,23.22
2023-05-14T16:32:04.785Z,23.13
2023-05-14T16:34:31.405Z,23.09
2023-05-14T16:36:59.381Z,22.83
2023-05-14T16:39:26.042Z,22.79
2023-05-14T16:41:52.480Z,22.76
2023-05-14T16:44:18.784Z,22.70
2023-05-14T16:46:45.227Z,22.32
2023-05-14T16:49:11.616Z,22.20
2023-05-14T16:51:42.410Z,22.15
2023-05-14T16:54:09.719Z,22.24
2023-05-14T16:56:36.618Z,22.18
2023-05-14T16:59:03.225Z,21.82
2023-05-14T17:01:32.625Z,21.65
2023-05-14T17:03:59.267Z,21.64
2023-05-14T17:06:25.723Z,21.52
2023-05-14T17:08:52.162Z,21.50
2023-05-14T17:11:21.026Z,21.43
2023-05-14T17:13:47.413Z,21.28
2023-05-14T17:16:14.176Z,21.13
2023-05-14T17:18:40.671Z,21.02
2023-05-14T17:21:07.540Z,20.86
2023-05-14T17:23:34.356Z,20.67
2023-05-14T17:26:00.805Z,20.52
2023-05-14T17:28:28.368Z,20.59
2023-05-14T17:30:54.728Z,20.48
2023-05-14T17:33:21.222Z,20.26
2023-05-14T17:35:48.413Z,20.06
2023-05-14T17:38:14.919Z,19.93
2023-05-14T17:40:41.323Z,19.93
2023-05-14T17:43:08.537Z,19.74
2023-05-14T17:45:46.384Z,19.66
2023-05-14T17:48:19.241Z,19.47
2023-05-14T17:50:45.682Z,19.36
2023-05-14T17:53:12.140Z,19.32
2023-05-14T17:55:43.359Z,19.30
2023-05-14T17:58:11.501Z,19.07
2023-05-14T18:00:37.913Z,18.94
2023-05-14T18:03:04.578Z,18.71
2023-05-14T18:05:31.697Z,18.60
2023-05-14T18:07:58.469Z,18.49
2023-05-14T18:10:26.001Z,18.43
2023-05-14T18:12:52.380Z,18.44
2023-05-14T18:15:20.297Z,18.40
2023-05-14T18:17:47.056Z,18.33
2023-05-14T18:20:13.538Z,18.17
2023-05-14T18:22:39.887Z,18.14
2023-05-14T18:25:07.165Z,17.98
2023-05-14T18:27:34.149Z,17.80
2023-05-14T18:30:00.618Z,17.66
2023-05-14T18:32:27.068Z,17.67
2023-05-14T18:34:53.568Z,17.49
2023-05-14T18:37:20.035Z,17.34
2023-05-14T18:39:46.434Z,17.28
2023-05-14T18:42:12.879Z,17.33
2023-05-14T18:44:43.994Z,17.22
2023-05-14T18:47:10.834Z,17.18
2023-05-14T18:49:40.139Z,17.13
2023-05-14T18:52:06.968Z,17.07
2023-05-14T18:54:33.515Z,17.02
2023-05-14T18:57:00.928Z,17.02
2023-05-14T18:59:27.333Z,16.94
2023-05-14T19:01:53.689Z,16.82
2023-05-14T19:04:20.026Z,16.68
2023-05-14T19:06:46.695Z,16.52
2023-05-14T19:09:14.685Z,16.45
2023-05-14T19:11:41.115Z,16.42
2023-05-14T19:14:07.530Z,16.37
2023-05-14T19:16:34.177Z,16.29
2023-05-14T19:19:00.740Z,16.21
2023-05-14T19:21:27.244Z,16.12
2023-05-14T19:23:53.611Z,16.06
2023-05-14T19:26:20.047Z,15.97
2023-05-14T19:28:46.365Z,15.84
2023-05-14T19:31:12.865Z,15.67
2023-05-14T19:33:39.362Z,15.62
2023-05-14T19:36:05.978Z,15.52
2023-05-14T19:38:32.507Z,15.51
2023-05-14T19:40:58.919Z,15.34
2023-05-14T19:43:25.996Z,15.31
2023-05-14T19:45:52.580Z,15.20
2023-05-14T19:48:19.258Z,15.07
2023-05-14T19:50:46.873Z,15.01
2023-05-14T19:53:13.605Z,14.92
2023-05-14T19:55:40.235Z,14.82
2023-05-14T19:58:06.639Z,14.80
2023-05-14T20:00:33.037Z,14.76
2023-05-14T20:02:59.621Z,14.71
2023-05-14T20:05:26.779Z,14.67
2023-05-14T20:07:54.623Z,14.64
2023-05-14T20:10:21.434Z,14.63
2023-05-14T20:12:47.930Z,14.55
2023-05-14T20:15:14.273Z,14.56
2023-05-14T20:17:40.777Z,14.51
2023-05-14T20:20:09.057Z,14.39
2023-05-14T20:22:35.729Z,14.40
2023-05-14T20:25:02.140Z,14.38
2023-05-14T20:27:28.608Z,14.36
2023-05-14T20:29:55.010Z,14.36
2023-05-14T20:32:25.151Z,14.32
2023-05-14T20:34:51.840Z,14.23
2023-05-14T20:37:21.523Z,14.17
2023-05-14T20:39:47.936Z,14.14
2023-05-14T20:42:14.303Z,14.09
2023-05-14T20:44:40.707Z,14.09
2023-05-14T20:47:07.248Z,14.05
2023-05-14T20:49:33.635Z,14.03
2023-05-14T20:51:59.976Z,14.03
2023-05-14T20:54:26.360Z,14.02
2023-05-14T20:56:52.856Z,13.98
2023-05-14T20:59:19.340Z,13.94
2023-05-14T21:01:45.816Z,13.93
2023-05-14T21:04:12.379Z,13.87
2023-05-14T21:06:38.901Z,13.83
2023-05-14T21:09:05.343Z,13.79
2023-05-14T21:11:31.789Z,13.82
2023-05-14T21:13:58.202Z,13.82
2023-05-14T21:16:25.036Z,13.74
2023-05-14T21:18:51.657Z,13.72
2023-05-14T21:21:18.077Z,13.70
2023-05-14T21:23:44.472Z,13.72
2023-05-14T21:26:11.470Z,13.62
2023-05-14T21:28:38.178Z,13.59
2023-05-14T21:31:04.567Z,13.54
2023-05-14T21:33:31.137Z,13.47
2023-05-14T21:35:57.600Z,13.43
2023-05-14T21:38:24.263Z,13.39
2023-05-14T21:40:50.732Z,13.32
2023-05-14T21:43:17.217Z,13.30
2023-05-14T21:45:46.168Z,13.26
2023-05-14T21:48:12.747Z,13.21
2023-05-14T21:50:39.124Z,13.21
2023-05-14T21:53:05.602Z,13.19
2023-05-14T21:55:32.129Z,13.19
2023-05-14T21:57:58.788Z,13.11
2023-05-14T22:00:25.243Z,13.06
2023-05-14T22:02:54.900Z,12.98
2023-05-14T22:05:22.336Z,12.94
2023-05-14T22:07:49.209Z,12.88
2023-05-14T22:10:16.586Z,12.88
2023-05-14T22:12:43.829Z,12.88
2023-05-14T22:15:11.398Z,12.86
2023-05-14T22:17:38.530Z,12.88
2023-05-14T22:20:06.697Z,12.81
2023-05-14T22:22:34.021Z,12.75
2023-05-14T22:25:00.587Z,12.72
2023-05-14T22:27:27.086Z,12.70
2023-05-14T22:29:55.102Z,12.65
2023-05-14T22:32:21.738Z,12.66
2023-05-14T22:34:49.360Z,12.67
2023-05-14T22:37:16.100Z,12.66
2023-05-14T22:39:42.894Z,12.63
2023-05-14T22:42:09.342Z,12.63
2023-05-14T22:44:36.978Z,12.61
2023-05-14T22:47:07.194Z,12.58
2023-05-14T22:49:33.627Z,12.55
2023-05-14T22:52:00.106Z,12.52
2023-05-14T22:54:26.547Z,12.48
2023-05-14T22:56:52.914Z,12.44
2023-05-14T22:59:20.569Z,12.43
2023-05-14T23:01:48.500Z,12.40
2023-05-14T23:04:15.035Z,12.42
2023-05-14T23:06:41.596Z,12.41
2023-05-14T23:09:08.027Z,12.41
2023-05-14T23:11:34.425Z,12.41
2023-05-14T23:14:00.806Z,12.39
2023-05-14T23:16:27.225Z,12.38
2023-05-14T23:18:53.832Z,12.40
2023-05-14T23:21:20.331Z,12.38
2023-05-14T23:23:46.754Z,12.40
2023-05-14T23:26:13.215Z,12.39
2023-05-14T23:28:39.827Z,12.37
2023-05-14T23:31:06.233Z,12.38
2023-05-14T23:33:32.628Z,12.37
2023-05-14T23:35:59.141Z,12.38
2023-05-14T23:38:25.710Z,12.40
2023-05-14T23:40:52.155Z,12.43
2023-05-14T23:43:18.514Z,12.45
2023-05-14T23:45:45.093Z,12.44
2023-05-14T23:48:11.713Z,12.41
2023-05-14T23:50:38.124Z,12.38
2023-05-14T23:53:04.557Z,12.38
2023-05-14T23:55:30.995Z,12.35
2023-05-14T23:57:57.401Z,12.32
